Skip Navigation Links
NOAA logo - Click to go to the NOAA homepage
NOAA's National Weather Service
Alaska Aviation Weather Unit
  NWS logo - Click to go to the NWS homepage
Left Navbar Graphic     17 AKDT = 01 GMT

   
NOAA is celebrating 200 years of science, service, and stewardship. Visit the NOAA 200th celebration Web site to learn more.
USA.gov is the U.S. Government's official Web portal to all Federal, state and local government Web resources and services.
Facebook
NWS on Facebook

Important Change Regarding the AAWU Web Presence

 

Over the last several months, the AAWU has been working to navigate its webpages to a nationally supported server. Security, as well as other needs, have necessitated the change.  In the process, we have made an effort to enhance the functionality of our website, as well as some of our products. As of June 27, 2017, aawu.arh.noaa.gov will be discontinued. The new AAWU web address is weather.gov/aawu. It is now live and will run in-parallel with the old site until it is discontinued. Please send any feedback or questions regarding the new webpages to nws.ar.aawu.webauthors@noaa.gov.  Thank you for your patience during this time of transition.
AAWU Home :: Display TAF Add Bookmark
METAR PALG 251956Z AUTO VRB03KT 10SM FEW023 OVC070 16/11 A2994 RMK AO2
     SLP142 T01610106 PWINO=

METAR PALG 252056Z AUTO 00000KT 10SM CLR 17/11 A2991 RMK AO2 SLP135
     T01720106 58022 PWINO $=

METAR PALG 252156Z AUTO 00000KT 10SM FEW065 18/11 A2988 RMK AO2
 SLP123 T01830106 PWINO $=

METAR PALG 252256Z AUTO VRB04KT 10SM SCT043 BKN070 20/10 A2985 RMK AO2
     SLP112 T02000100 PWINO=

METAR PALG 252356Z AUTO VRB05KT 10SM FEW049 SCT080 21/10 A2982 RMK AO2
     SLP101 T02110100 10211 20133 56034=


NOAA's National Weather Service
Alaska Aviation Weather Unit
6930 Sand Lake Road
Anchorage, AK 99502-1845
Disclaimer
Credits
Glossary
Privacy Policy
About Us
Career Opportunities
Contact AAWU Internet Services Site last modified: April, 17th 2012